Main page
METAR-TAF:

METAR-TAF

Airports :

Castres, France

Castres–Mazamet Airport

latitude: 43-33-25N, longitude: 2-17-21E, elevation: 239 m

Current weather observation

The report was made 10 minutes ago, at 07:00 UTC
Wind 8 kt from the West
Temperature 5°C
Humidity 87%
Pressure 1026 hPa
Visibility 10 km or more
Overcast at a height of 4300 ft

METAR: LFCK 180700Z AUTO 27008KT 9999 OVC043 05/03 Q1026 TEMPO BKN008

Time: 08:10 (07:10 UTC)

Forecast

The report was made 1 hour and 2 minutes ago, at 06:08 UTC
Forecast valid from 18 at 06 UTC to 18 at 15 UTC
Wind 10 kt from the West/Northwest
Visibility 10 km or more
Scattered clouds at a height of 1100 ft
Broken clouds at a height of 2500 ft
Temporary
from 18 at 06 UTC to 18 at 09 UTC
Broken clouds at a height of 800 ft
Becoming
from 18 at 09 UTC to 18 at 11 UTC
Broken clouds at a height of 2000 ft

TAF: LFCK 180608Z 1806/1815 29010KT 9999 SCT011 BKN025 TEMPO 1806/1809 BKN008 BECMG 1809/1811 BKN020

Weather observations and forecasts of more than 4000 airports (METAR and TAF reports).

The available stations are represented by yellow and red dots on the map.

Hover mouse over dot to see the name of the station.

Then click to see weather observations and forecasts.

To change the map : click on the green buttons with a black cross to zoom in, on the green button with a dash to zoom out, or on the green arrows for adjacent maps.


METAR-TAF: